Time;durP1;ratioP1;P1;durP2;ratioP2;P2;SDS_P1;SDS_P2;PMS_P1;PMS_P2;Temp;Humidity;BMP_temperature;BMP_pressure;BME280_temperature;BME280_humidity;BME280_pressure;Samples;Min_cycle;Max_cycle;Signal;HPM_P1;HPM_P2
2023/10/17 00:00:25;;;;;;;28.63;16.40;;;8.70;78.30;;;;;;5062541;28;20216;-50
2023/10/17 00:02:54;;;;;;;34.00;17.93;;;8.70;82.40;;;;;;5061541;28;20216;-51
2023/10/17 00:05:23;;;;;;;34.47;17.70;;;8.70;76.50;;;;;;5066715;28;20218;-49
2023/10/17 00:07:58;;;;;;;30.13;18.33;;;8.70;79.50;;;;;;5069066;28;20236;-50
2023/10/17 00:10:31;;;;;;;30.70;19.13;;;8.70;86.10;;;;;;5063637;28;20596;-51
2023/10/17 00:13:18;;;;;;;37.07;20.60;;;8.70;83.60;;;;;;5069886;28;20387;-51
2023/10/17 00:15:47;;;;;;;32.27;19.70;;;8.70;81.70;;;;;;5064033;28;20219;-50
2023/10/17 00:18:18;;;;;;;38.80;21.73;;;8.70;77.50;;;;;;5069874;28;20222;-51
2023/10/17 00:20:51;;;;;;;33.10;20.43;;;8.70;72.80;;;;;;5067862;28;20227;-52
2023/10/17 00:23:22;;;;;;;36.93;20.87;;;8.70;79.10;;;;;;5068508;28;20302;-53
2023/10/17 00:25:51;;;;;;;36.23;21.17;;;8.70;85.90;;;;;;5060395;28;20221;-52
2023/10/17 00:28:22;;;;;;;33.27;21.53;;;8.60;86.30;;;;;;5066447;28;20208;-50
2023/10/17 00:30:50;;;;;;;38.80;21.80;;;8.60;90.30;;;;;;5069641;28;20670;-50
2023/10/17 00:33:23;;;;;;;39.00;21.77;;;8.60;89.50;;;;;;5066182;28;20211;-49
2023/10/17 00:35:54;;;;;;;35.40;20.47;;;8.60;91.40;;;;;;5068893;28;20307;-51
2023/10/17 00:38:29;;;;;;;36.33;21.07;;;8.70;90.20;;;;;;5083982;28;20219;-50
2023/10/17 00:40:58;;;;;;;34.20;19.73;;;8.60;90.00;;;;;;5063735;28;20224;-52
2023/10/17 00:43:30;;;;;;;40.53;21.33;;;8.60;90.80;;;;;;5065057;28;20278;-51
2023/10/17 00:45:58;;;;;;;30.00;19.00;;;8.60;92.70;;;;;;5069938;28;20195;-48
2023/10/17 00:48:27;;;;;;;32.50;19.07;;;8.60;96.70;;;;;;5069402;28;20243;-49
2023/10/17 00:51:08;;;;;;;34.20;20.53;;;8.60;97.10;;;;;;5060774;28;20221;-48
2023/10/17 00:53:40;;;;;;;36.47;21.87;;;8.60;97.30;;;;;;5065529;28;20208;-48
2023/10/17 00:56:08;;;;;;;40.77;23.03;;;8.50;96.00;;;;;;5062341;28;20219;-54
2023/10/17 00:58:37;;;;;;;39.83;21.87;;;8.50;97.60;;;;;;5065816;28;20188;-50
2023/10/17 01:01:15;;;;;;;34.83;22.20;;;8.50;99.90;;;;;;5061480;28;20196;-52
2023/10/17 01:03:45;;;;;;;36.17;22.17;;;8.50;99.90;;;;;;5064408;28;20291;-52
2023/10/17 01:06:24;;;;;;;38.97;22.47;;;8.50;99.90;;;;;;5081365;28;20224;-50
2023/10/17 01:08:54;;;;;;;37.37;22.77;;;8.50;99.90;;;;;;5068394;28;20226;-52
2023/10/17 01:11:27;;;;;;;42.97;23.40;;;8.50;99.90;;;;;;5066318;28;20220;-50
2023/10/17 01:13:57;;;;;;;40.50;22.80;;;8.50;99.90;;;;;;5066215;28;20329;-52
2023/10/17 01:16:26;;;;;;;42.10;23.00;;;8.50;99.90;;;;;;5067890;28;20535;-53
2023/10/17 01:18:55;;;;;;;38.33;22.70;;;8.50;99.90;;;;;;5067152;28;20527;-52
2023/10/17 01:21:23;;;;;;;41.70;23.73;;;8.50;99.90;;;;;;5064904;28;20235;-52
2023/10/17 01:23:52;;;;;;;40.00;22.53;;;8.50;99.90;;;;;;5069536;28;20540;-50
2023/10/17 01:26:23;;;;;;;39.30;21.77;;;8.50;99.90;;;;;;5070818;28;20224;-53
2023/10/17 01:28:54;;;;;;;38.90;21.87;;;8.50;99.90;;;;;;5067583;28;20225;-51
2023/10/17 01:31:25;;;;;;;40.90;21.53;;;8.40;99.90;;;;;;5068892;28;20289;-52
2023/10/17 01:33:55;;;;;;;39.27;22.07;;;8.50;99.90;;;;;;5070435;28;20198;-49
2023/10/17 01:36:24;;;;;;;41.00;21.03;;;8.50;99.90;;;;;;5066578;28;20301;-50
2023/10/17 01:38:54;;;;;;;34.20;21.17;;;8.50;99.90;;;;;;5067659;28;20231;-49
2023/10/17 01:41:25;;;;;;;31.03;19.90;;;8.50;99.90;;;;;;5074224;28;20223;-52
2023/10/17 01:43:53;;;;;;;37.67;20.10;;;8.50;99.90;;;;;;5069123;28;20251;-51
2023/10/17 01:46:22;;;;;;;36.67;19.80;;;8.50;99.90;;;;;;5066545;28;20192;-50
2023/10/17 01:48:54;;;;;;;35.57;18.83;;;8.40;99.90;;;;;;5072088;28;20204;-50
2023/10/17 01:51:24;;;;;;;36.70;19.40;;;8.50;99.90;;;;;;5067610;28;20216;-51
2023/10/17 01:53:53;;;;;;;33.83;19.40;;;8.50;99.90;;;;;;5066453;28;20561;-50
2023/10/17 01:56:26;;;;;;;31.93;18.13;;;8.50;99.90;;;;;;5071781;28;20220;-49
2023/10/17 01:58:59;;;;;;;35.57;18.03;;;8.50;99.90;;;;;;5071232;28;20934;-49
2023/10/17 02:01:29;;;;;;;31.63;18.23;;;8.50;99.90;;;;;;5070117;28;20207;-50
2023/10/17 02:04:02;;;;;;;30.20;18.87;;;8.50;99.90;;;;;;5065901;28;20543;-52
2023/10/17 02:06:30;;;;;;;33.63;18.53;;;8.50;99.90;;;;;;5065263;28;20258;-53
2023/10/17 02:09:00;;;;;;;32.77;17.97;;;8.40;99.90;;;;;;5070526;28;20234;-55
2023/10/17 02:11:37;;;;;;;31.00;18.37;;;8.50;99.90;;;;;;5067180;28;20223;-50
2023/10/17 02:14:08;;;;;;;32.97;18.33;;;8.50;99.90;;;;;;5069261;28;20319;-50
2023/10/17 02:16:37;;;;;;;38.03;17.97;;;8.50;99.90;;;;;;5069526;28;20195;-54
2023/10/17 02:19:07;;;;;;;36.07;18.57;;;8.50;99.90;;;;;;5069531;28;20193;-52
2023/10/17 02:21:38;;;;;;;36.80;19.20;;;8.50;99.90;;;;;;5067786;28;20570;-51
2023/10/17 02:24:07;;;;;;;33.63;18.70;;;8.50;99.90;;;;;;5065571;28;20280;-52
2023/10/17 02:26:49;;;;;;;29.70;17.63;;;8.50;99.90;;;;;;5070310;28;20290;-51
2023/10/17 02:29:23;;;;;;;30.80;17.10;;;8.50;99.90;;;;;;5068055;28;20219;-53
2023/10/17 02:31:54;;;;;;;32.90;17.83;;;8.50;99.90;;;;;;5068235;28;20223;-52
2023/10/17 02:34:23;;;;;;;34.23;17.83;;;8.40;99.90;;;;;;5071455;28;20657;-53
2023/10/17 02:36:52;;;;;;;33.73;17.53;;;8.50;99.90;;;;;;5069513;28;20207;-51
2023/10/17 02:39:21;;;;;;;26.83;16.83;;;8.50;99.90;;;;;;5066433;28;20231;-54
2023/10/17 02:41:58;;;;;;;36.17;18.73;;;8.50;99.90;;;;;;5067994;28;20254;-53
2023/10/17 02:44:26;;;;;;;32.40;16.93;;;8.50;99.90;;;;;;5069683;28;20231;-51
2023/10/17 02:46:58;;;;;;;32.50;18.30;;;8.50;99.90;;;;;;5066527;28;20225;-50
2023/10/17 02:49:32;;;;;;;30.23;17.57;;;8.50;99.90;;;;;;5065797;28;20575;-52
2023/10/17 02:52:01;;;;;;;36.80;17.20;;;8.50;99.90;;;;;;5070816;28;20274;-53
2023/10/17 02:54:30;;;;;;;32.53;18.00;;;8.50;99.90;;;;;;5073449;28;20587;-53
2023/10/17 02:57:00;;;;;;;32.17;17.67;;;8.50;99.90;;;;;;5069290;28;20215;-53
2023/10/17 02:59:29;;;;;;;32.17;17.97;;;8.50;99.90;;;;;;5067932;28;20251;-53
2023/10/17 03:01:57;;;;;;;27.87;17.30;;;8.50;99.90;;;;;;5069481;28;20224;-52
2023/10/17 03:04:26;;;;;;;37.80;18.50;;;8.50;99.90;;;;;;5065758;28;20220;-52
2023/10/17 03:06:55;;;;;;;29.53;17.47;;;8.50;99.90;;;;;;5065417;28;20671;-54
2023/10/17 03:12:19;;;;;;;33.53;18.00;;;8.50;99.90;;;;;;5062845;28;20582;-53
2023/10/17 03:17:33;;;;;;;31.57;18.77;;;8.50;99.90;;;;;;5062512;28;20273;-49
2023/10/17 03:20:01;;;;;;;28.37;17.23;;;8.50;99.90;;;;;;5067460;28;20730;-52
2023/10/17 03:22:29;;;;;;;31.17;17.33;;;8.50;99.90;;;;;;5067408;28;20625;-48
2023/10/17 03:25:18;;;;;;;26.83;16.77;;;8.50;99.90;;;;;;5061863;28;20830;-52
2023/10/17 03:27:55;;;;;;;33.37;16.30;;;8.50;99.90;;;;;;5063024;28;20746;-52
2023/10/17 03:30:24;;;;;;;29.73;17.53;;;8.50;99.90;;;;;;5066311;28;20839;-50
2023/10/17 03:33:06;;;;;;;28.97;17.27;;;8.50;99.90;;;;;;5069482;28;20307;-49
2023/10/17 03:35:46;;;;;;;27.27;16.37;;;8.50;99.90;;;;;;5063061;28;20306;-52
2023/10/17 03:38:15;;;;;;;30.27;16.17;;;8.50;99.90;;;;;;5064994;28;20700;-54
2023/10/17 03:40:51;;;;;;;29.17;16.47;;;8.50;99.90;;;;;;5064957;28;20236;-49
2023/10/17 03:43:24;;;;;;;28.30;15.50;;;8.50;99.90;;;;;;5067870;28;20187;-51
2023/10/17 03:45:56;;;;;;;28.80;15.33;;;8.50;99.90;;;;;;5066093;28;20212;-51
2023/10/17 03:48:28;;;;;;;26.63;15.60;;;8.50;99.90;;;;;;5069534;28;20219;-50
2023/10/17 03:51:08;;;;;;;29.60;15.20;;;8.40;99.90;;;;;;5069262;28;20247;-52
2023/10/17 03:53:44;;;;;;;29.37;14.33;;;8.40;99.90;;;;;;5067867;28;20211;-53
2023/10/17 03:56:23;;;;;;;25.80;15.17;;;8.40;99.90;;;;;;5065209;28;20247;-52
2023/10/17 03:58:57;;;;;;;23.80;14.37;;;8.50;99.90;;;;;;5062932;28;20220;-51
2023/10/17 04:01:27;;;;;;;24.70;15.03;;;8.50;99.90;;;;;;5066566;28;20638;-52
2023/10/17 04:04:00;;;;;;;24.17;13.97;;;8.50;99.90;;;;;;5068499;28;20250;-52
2023/10/17 04:06:41;;;;;;;22.37;13.93;;;8.40;99.90;;;;;;5067452;28;20220;-52
2023/10/17 04:09:25;;;;;;;23.30;14.13;;;8.40;99.90;;;;;;5073073;28;20219;-52
2023/10/17 04:11:56;;;;;;;23.33;13.90;;;8.40;99.90;;;;;;5065383;28;20216;-52
2023/10/17 04:14:33;;;;;;;22.27;13.67;;;8.40;99.90;;;;;;5065018;28;20266;-52
2023/10/17 04:17:04;;;;;;;20.00;13.43;;;8.40;99.90;;;;;;5069872;28;20219;-50
2023/10/17 04:19:39;;;;;;;19.63;13.27;;;8.40;99.90;;;;;;5068796;28;20600;-54
2023/10/17 04:22:14;;;;;;;24.00;12.77;;;8.40;99.90;;;;;;5068943;28;20719;-52
2023/10/17 04:24:49;;;;;;;25.70;13.30;;;8.40;99.90;;;;;;5066980;28;20262;-53
2023/10/17 04:27:22;;;;;;;21.33;12.43;;;8.40;99.90;;;;;;5066889;28;20602;-53
2023/10/17 04:29:56;;;;;;;22.80;12.67;;;8.40;99.90;;;;;;5059282;28;20219;-52
2023/10/17 04:32:28;;;;;;;22.17;12.87;;;8.50;99.90;;;;;;5067657;28;20696;-52
2023/10/17 04:34:56;;;;;;;19.90;11.97;;;8.40;99.90;;;;;;5067920;28;20219;-54
2023/10/17 04:37:33;;;;;;;18.27;12.70;;;8.40;99.90;;;;;;5072204;28;20295;-53
2023/10/17 04:45:29;;;;;;;19.33;11.40;;;8.40;99.90;;;;;;5075095;28;20212;-53
2023/10/17 04:48:10;;;;;;;22.20;11.33;;;8.30;98.40;;;;;;5070487;28;20232;-53
2023/10/17 04:50:45;;;;;;;15.40;10.30;;;8.40;97.10;;;;;;5070760;28;20303;-53
2023/10/17 04:53:26;;;;;;;16.37;11.13;;;8.40;94.10;;;;;;5066608;28;20742;-53
2023/10/17 04:56:09;;;;;;;22.70;11.87;;;8.40;94.30;;;;;;5069598;28;20314;-54
2023/10/17 04:58:42;;;;;;;22.77;11.07;;;8.40;91.20;;;;;;5066670;28;20192;-54
2023/10/17 05:01:35;;;;;;;22.60;10.70;;;8.40;87.90;;;;;;5067587;28;20298;-53
2023/10/17 05:04:18;;;;;;;16.47;10.37;;;8.40;85.60;;;;;;5068170;28;20697;-53
2023/10/17 06:19:21;;;;;;;12.03;7.50;;;8.20;52.60;;;;;;5068138;28;20202;-57
2023/10/17 06:26:04;;;;;;;10.43;7.73;;;8.20;56.20;;;;;;5067339;28;20211;-54
2023/10/17 06:30:45;;;;;;;15.07;7.83;;;8.10;54.60;;;;;;5070094;28;20231;-54
2023/10/17 06:33:19;;;;;;;12.40;7.67;;;8.10;58.10;;;;;;5068684;28;20211;-56
2023/10/17 06:35:52;;;;;;;11.67;7.27;;;8.10;61.30;;;;;;5066217;28;20230;-58
2023/10/17 06:38:27;;;;;;;12.70;8.00;;;8.10;65.80;;;;;;5067344;28;20871;-57
2023/10/17 06:41:11;;;;;;;14.20;7.53;;;8.00;63.50;;;;;;5064552;28;20216;-59
2023/10/17 06:43:40;;;;;;;11.07;7.83;;;8.00;69.30;;;;;;5065625;28;20227;-58
2023/10/17 06:46:12;;;;;;;11.97;7.80;;;8.00;72.90;;;;;;5060674;28;20223;-58
2023/10/17 06:48:49;;;;;;;11.57;7.60;;;8.00;72.10;;;;;;5063599;28;20311;-58
2023/10/17 06:51:36;;;;;;;10.20;7.37;;;8.10;69.30;;;;;;5065101;28;20220;-58
2023/10/17 06:54:12;;;;;;;15.17;7.00;;;8.00;63.00;;;;;;5066347;28;20574;-58
2023/10/17 06:56:44;;;;;;;10.00;6.73;;;8.10;62.10;;;;;;5064646;28;20238;-58
2023/10/17 06:59:33;;;;;;;13.13;7.20;;;8.10;65.50;;;;;;5069387;28;20240;-58
2023/10/17 07:02:10;;;;;;;12.13;6.90;;;8.20;70.40;;;;;;5067128;28;20696;-58
2023/10/17 07:04:40;;;;;;;9.47;7.47;;;8.20;58.90;;;;;;5064209;28;20334;-58
2023/10/17 07:07:09;;;;;;;10.97;6.80;;;8.20;50.00;;;;;;5067449;28;20227;-58
2023/10/17 07:09:39;;;;;;;8.13;6.77;;;8.30;48.90;;;;;;5067715;28;20230;-58
2023/10/17 07:12:15;;;;;;;9.53;6.37;;;8.30;42.50;;;;;;5065664;28;20219;-59
2023/10/17 07:14:49;;;;;;;7.40;6.67;;;8.40;32.40;;;;;;5065350;28;20219;-59
2023/10/17 07:17:31;;;;;;;11.23;6.60;;;8.40;26.30;;;;;;5059275;28;20319;-58
2023/10/17 07:19:59;;;;;;;9.07;6.33;;;8.50;22.80;;;;;;5066714;28;20227;-59
2023/10/17 07:22:35;;;;;;;10.47;6.50;;;8.50;19.80;;;;;;5066101;28;20662;-58
2023/10/17 07:25:14;;;;;;;18.67;6.40;;;8.50;14.30;;;;;;5064954;28;20192;-58
2023/10/17 07:27:44;;;;;;;8.23;5.90;;;8.50;14.90;;;;;;5062466;28;21405;-58
2023/10/17 07:30:14;;;;;;;7.67;5.83;;;8.50;10.00;;;;;;5066848;28;20228;-57
2023/10/17 07:32:49;;;;;;;8.93;5.53;;;8.50;11.50;;;;;;5061903;28;20226;-57
2023/10/17 07:35:23;;;;;;;8.23;6.17;;;8.60;1.60;;;;;;5067333;28;20231;-59
2023/10/17 07:37:56;;;;;;;7.43;5.77;;;8.60;1.00;;;;;;5063971;28;20246;-57
2023/10/17 07:43:21;;;;;;;9.23;5.60;;;8.70;1.00;;;;;;5057610;28;20205;-58
2023/10/17 07:45:55;;;;;;;9.97;5.50;;;8.70;1.00;;;;;;5062462;28;20230;-58
2023/10/17 07:48:25;;;;;;;6.50;5.50;;;8.70;1.00;;;;;;5062447;28;20215;-57
2023/10/17 07:50:57;;;;;;;9.03;5.00;;;8.70;1.00;;;;;;5063583;28;20222;-58
2023/10/17 07:53:32;;;;;;;9.57;5.57;;;8.80;1.00;;;;;;5062117;28;20231;-58
2023/10/17 07:56:05;;;;;;;7.23;5.30;;;8.80;1.00;;;;;;5062170;28;20594;-58
2023/10/17 07:58:41;;;;;;;6.60;5.57;;;8.80;1.00;;;;;;5056000;28;20188;-59
2023/10/17 08:01:14;;;;;;;8.13;5.70;;;8.90;1.00;;;;;;5066744;28;20561;-58
2023/10/17 08:03:54;;;;;;;6.97;5.70;;;9.00;1.00;;;;;;5058830;28;20297;-58
2023/10/17 08:06:29;;;;;;;7.70;5.53;;;9.00;1.00;;;;;;5068394;28;20756;-58
2023/10/17 08:09:00;;;;;;;8.93;5.27;;;9.10;1.00;;;;;;5068864;28;20216;-59
2023/10/17 08:11:30;;;;;;;8.77;5.83;;;9.00;1.00;;;;;;5059924;28;20227;-60
2023/10/17 08:14:06;;;;;;;9.10;5.57;;;9.10;1.00;;;;;;5067843;28;20686;-58
2023/10/17 08:16:34;;;;;;;8.20;5.23;;;9.10;1.00;;;;;;5066881;28;20196;-59
2023/10/17 08:19:14;;;;;;;10.80;5.10;;;9.10;1.00;;;;;;5078519;28;20196;-58
2023/10/17 08:21:59;;;;;;;8.57;5.73;;;9.20;1.00;;;;;;5066001;28;20224;-57
2023/10/17 08:24:33;;;;;;;6.60;5.13;;;9.30;1.00;;;;;;5063226;28;20694;-57
2023/10/17 08:27:41;;;;;;;7.53;5.43;;;9.40;1.00;;;;;;5068751;28;20307;-58
2023/10/17 08:30:14;;;;;;;7.07;5.23;;;9.50;1.00;;;;;;5060761;28;20244;-59
2023/10/17 08:33:11;;;;;;;6.70;4.63;;;9.70;1.00;;;;;;5068650;28;20239;-58
2023/10/17 08:35:39;;;;;;;8.63;5.60;;;9.90;1.00;;;;;;5064497;28;20220;-58
2023/10/17 08:38:10;;;;;;;8.67;5.00;;;10.10;1.00;;;;;;5066670;28;20559;-58
2023/10/17 08:40:41;;;;;;;5.27;4.77;;;10.50;1.00;;;;;;5060676;28;20199;-58
2023/10/17 08:43:14;;;;;;;8.13;4.90;;;10.70;1.00;;;;;;5069167;28;20198;-58
2023/10/17 08:45:47;;;;;;;6.97;4.57;;;11.00;1.00;;;;;;5063960;28;20307;-59
2023/10/17 08:48:16;;;;;;;7.83;5.00;;;10.90;1.00;;;;;;5062037;28;20244;-58
2023/10/17 08:50:44;;;;;;;5.77;4.50;;;10.80;1.00;;;;;;5064290;28;20223;-58
2023/10/17 08:53:19;;;;;;;7.53;4.57;;;10.90;1.00;;;;;;5061276;28;20286;-58
2023/10/17 08:55:50;;;;;;;4.73;4.33;;;11.00;1.00;;;;;;5064395;28;20319;-59
2023/10/17 08:58:24;;;;;;;5.83;4.17;;;11.10;1.00;;;;;;5068694;28;20201;-58
2023/10/17 09:01:07;;;;;;;5.93;4.20;;;11.10;1.00;;;;;;5070184;28;20223;-58
2023/10/17 09:03:41;;;;;;;7.93;4.80;;;11.20;1.00;;;;;;5067019;28;20297;-58
2023/10/17 09:09:17;;;;;;;6.47;5.30;;;11.10;1.00;;;;;;5061605;28;20253;-57
2023/10/17 09:12:03;;;;;;;4.83;4.40;;;11.10;1.00;;;;;;5067870;28;20239;-58
2023/10/17 09:14:35;;;;;;;6.43;4.20;;;11.20;1.00;;;;;;5062634;28;20220;-58
2023/10/17 09:17:15;;;;;;;5.17;4.40;;;11.30;1.00;;;;;;5064377;28;20216;-59
2023/10/17 09:19:52;;;;;;;4.53;4.13;;;11.30;1.00;;;;;;5067000;28;20232;-58
2023/10/17 09:22:38;;;;;;;4.40;4.00;;;11.40;1.00;;;;;;5060400;28;20675;-58
2023/10/17 09:25:19;;;;;;;5.07;4.23;;;11.30;1.00;;;;;;5067259;28;20554;-58
2023/10/17 09:27:52;;;;;;;5.03;4.60;;;11.20;1.00;;;;;;5065736;28;20242;-57
2023/10/17 09:30:23;;;;;;;7.00;4.47;;;11.40;1.00;;;;;;5064475;28;20225;-58
2023/10/17 09:32:53;;;;;;;7.03;4.23;;;11.50;1.00;;;;;;5061991;28;20239;-58
2023/10/17 09:35:22;;;;;;;4.10;3.80;;;11.60;1.00;;;;;;5068025;28;20563;-58
2023/10/17 09:37:52;;;;;;;9.53;4.20;;;11.80;1.00;;;;;;5064351;28;20251;-58
2023/10/17 09:40:27;;;;;;;6.50;4.10;;;11.90;1.00;;;;;;5062477;28;20193;-58
2023/10/17 09:42:55;;;;;;;4.57;4.13;;;12.00;1.00;;;;;;5066832;28;20654;-58
2023/10/17 09:45:24;;;;;;;8.13;4.00;;;11.90;1.00;;;;;;5067650;28;20724;-58
2023/10/17 09:48:05;;;;;;;10.53;3.90;;;11.90;1.00;;;;;;5066005;28;20215;-58
2023/10/17 09:50:38;;;;;;;5.77;4.10;;;12.00;1.00;;;;;;5066215;28;20613;-58
2023/10/17 09:53:16;;;;;;;7.23;4.00;;;12.10;1.00;;;;;;5070373;28;20219;-59
2023/10/17 09:55:48;;;;;;;5.83;3.93;;;12.20;1.00;;;;;;5066967;28;20228;-58
2023/10/17 09:58:21;;;;;;;4.90;3.90;;;12.30;1.00;;;;;;5067046;28;20551;-59
2023/10/17 10:00:54;;;;;;;4.50;4.10;;;12.40;1.00;;;;;;5068833;28;20220;-59
2023/10/17 10:03:28;;;;;;;4.73;3.87;;;12.60;1.00;;;;;;5070190;28;20219;-58
2023/10/17 10:06:21;;;;;;;4.73;4.20;;;12.70;99.90;;;;;;5066645;28;20247;-59
2023/10/17 10:08:54;;;;;;;4.60;4.10;;;12.70;99.90;;;;;;5061087;28;20216;-58
2023/10/17 10:11:56;;;;;;;5.20;3.80;;;12.70;99.90;;;;;;5059667;28;20222;-58
2023/10/17 10:14:40;;;;;;;4.43;4.03;;;12.60;99.90;;;;;;5061237;28;20982;-59
2023/10/17 10:17:14;;;;;;;4.67;4.00;;;12.70;99.90;;;;;;5058730;28;20759;-59
2023/10/17 10:20:00;;;;;;;4.60;3.80;;;12.80;99.90;;;;;;5057578;28;20558;-59
2023/10/17 10:22:54;;;;;;;4.63;3.63;;;12.80;99.90;;;;;;5059748;28;20525;-58
2023/10/17 10:25:22;;;;;;;3.83;3.40;;;12.80;99.90;;;;;;5065890;28;20192;-58
2023/10/17 10:28:25;;;;;;;3.87;3.53;;;12.80;99.90;;;;;;5062482;28;20590;-59
2023/10/17 10:30:54;;;;;;;5.20;3.33;;;12.90;99.90;;;;;;5064403;28;20216;-58
2023/10/17 10:33:28;;;;;;;4.33;3.90;;;13.10;99.90;;;;;;5065654;28;20706;-59
2023/10/17 10:35:58;;;;;;;3.57;3.20;;;13.00;99.90;;;;;;5053632;28;20236;-59
2023/10/17 10:38:30;;;;;;;5.30;3.50;;;13.10;68.80;;;;;;5063825;28;20224;-58
2023/10/17 10:41:07;;;;;;;5.50;3.40;;;13.20;99.90;;;;;;5066645;28;20318;-59
2023/10/17 10:43:35;;;;;;;4.43;3.47;;;13.30;99.90;;;;;;5060582;28;20200;-58
2023/10/17 10:46:04;;;;;;;3.73;3.17;;;13.40;99.90;;;;;;5058299;28;20897;-59
2023/10/17 10:48:33;;;;;;;3.50;3.20;;;13.50;30.60;;;;;;5064130;28;20258;-59
2023/10/17 10:51:04;;;;;;;6.50;3.03;;;13.60;33.10;;;;;;5062452;28;20216;-59
2023/10/17 10:53:36;;;;;;;4.37;3.27;;;13.80;95.00;;;;;;5055705;28;20219;-59
2023/10/17 10:56:09;;;;;;;4.93;3.20;;;13.90;1.00;;;;;;5063795;28;20273;-58
2023/10/17 10:58:47;;;;;;;3.40;3.10;;;14.10;99.90;;;;;;5058958;28;20188;-58
2023/10/17 11:01:18;;;;;;;3.03;2.90;;;14.30;1.00;;;;;;5058869;28;20203;-59
2023/10/17 11:03:47;;;;;;;5.10;2.73;;;14.40;1.00;;;;;;5064073;28;20238;-59
2023/10/17 11:06:24;;;;;;;2.80;2.43;;;14.40;99.90;;;;;;5055534;28;20297;-58
2023/10/17 11:08:54;;;;;;;2.80;2.37;;;14.30;99.90;;;;;;5056050;28;20227;-59
2023/10/17 11:11:25;;;;;;;3.00;2.53;;;14.30;99.90;;;;;;5061935;28;20224;-58
2023/10/17 11:13:56;;;;;;;5.07;2.93;;;14.50;98.20;;;;;;5059313;28;20256;-59
2023/10/17 11:16:25;;;;;;;5.33;2.60;;;14.60;99.90;;;;;;5062416;28;20848;-58
2023/10/17 11:18:54;;;;;;;4.50;2.50;;;14.70;1.00;;;;;;5061851;28;20223;-58
2023/10/17 11:21:25;;;;;;;5.17;2.73;;;14.80;32.10;;;;;;5058776;28;20230;-58
2023/10/17 11:23:59;;;;;;;2.60;2.40;;;14.90;1.00;;;;;;5057304;28;20245;-59
2023/10/17 11:26:30;;;;;;;3.77;2.80;;;15.00;1.00;;;;;;5059791;28;20251;-59
2023/10/17 11:29:02;;;;;;;2.37;2.20;;;15.10;1.00;;;;;;5074462;28;20321;-59
2023/10/17 11:31:31;;;;;;;2.57;2.37;;;15.20;99.90;;;;;;5067954;28;20197;-58
2023/10/17 11:34:03;;;;;;;2.20;2.00;;;15.20;1.00;;;;;;5065483;28;20214;-59
2023/10/17 11:36:45;;;;;;;2.30;2.10;;;15.30;1.00;;;;;;5060209;28;20238;-59
2023/10/17 11:39:15;;;;;;;2.93;2.63;;;15.20;99.90;;;;;;5066162;28;20210;-59
2023/10/17 11:41:48;;;;;;;3.13;2.10;;;15.20;1.00;;;;;;5059743;28;20285;-58
2023/10/17 11:44:16;;;;;;;2.40;2.17;;;15.40;1.00;;;;;;5061665;28;20219;-59
2023/10/17 11:46:55;;;;;;;2.20;2.00;;;15.60;1.00;;;;;;5064815;28;20333;-59
2023/10/17 11:49:28;;;;;;;2.03;1.87;;;15.60;1.00;;;;;;5059111;28;20218;-59
2023/10/17 11:52:02;;;;;;;2.50;2.20;;;15.70;1.00;;;;;;5065324;28;20268;-59
2023/10/17 11:54:31;;;;;;;3.43;2.13;;;15.90;1.00;;;;;;5059592;28;20225;-59
2023/10/17 11:57:13;;;;;;;2.27;2.07;;;16.10;99.90;;;;;;5062814;28;20216;-59
2023/10/17 12:00:00;;;;;;;2.60;1.60;;;16.00;1.00;;;;;;5063486;28;20216;-59
2023/10/17 12:02:29;;;;;;;2.93;1.90;;;16.30;99.90;;;;;;5059464;28;20220;-59
2023/10/17 12:05:00;;;;;;;3.80;2.00;;;16.30;99.90;;;;;;5062185;28;20280;-59
2023/10/17 12:07:30;;;;;;;2.10;2.00;;;16.30;1.00;;;;;;5054473;28;20195;-58
2023/10/17 12:10:04;;;;;;;2.33;2.13;;;16.40;3.20;;;;;;5062548;28;20254;-59
2023/10/17 12:12:34;;;;;;;2.00;1.80;;;16.50;99.90;;;;;;5063600;28;20212;-59
2023/10/17 12:15:04;;;;;;;4.23;2.00;;;16.70;1.00;;;;;;5060746;28;20220;-59
2023/10/17 12:17:33;;;;;;;3.43;1.90;;;16.60;1.00;;;;;;5067163;28;20258;-59
2023/10/17 12:20:01;;;;;;;2.17;1.90;;;16.40;1.00;;;;;;5060574;28;20219;-59
2023/10/17 12:22:31;;;;;;;3.77;2.13;;;16.20;1.00;;;;;;5065623;28;20202;-58
2023/10/17 12:24:59;;;;;;;2.43;1.93;;;16.30;99.90;;;;;;5064573;28;20844;-59
2023/10/17 12:27:28;;;;;;;1.93;1.83;;;16.10;99.90;;;;;;5064789;28;20216;-59
2023/10/17 12:29:57;;;;;;;5.23;2.20;;;16.20;99.90;;;;;;5053520;28;20362;-59
2023/10/17 12:32:25;;;;;;;2.00;1.90;;;16.00;1.00;;;;;;5063524;28;20223;-59
2023/10/17 12:34:54;;;;;;;2.43;2.00;;;16.10;1.00;;;;;;5060223;28;20217;-59
2023/10/17 12:37:22;;;;;;;4.10;1.90;;;16.10;99.90;;;;;;5063039;28;20198;-58
2023/10/17 12:39:52;;;;;;;2.23;2.07;;;16.00;1.00;;;;;;5066488;28;20686;-58
2023/10/17 12:42:21;;;;;;;3.53;2.07;;;16.10;1.00;;;;;;5064661;28;20894;-58
2023/10/17 12:44:50;;;;;;;2.20;2.00;;;16.30;1.00;;;;;;5064335;28;20225;-59
2023/10/17 12:47:20;;;;;;;2.20;2.00;;;16.20;1.00;;;;;;5063143;28;20563;-58
2023/10/17 12:49:49;;;;;;;3.80;1.90;;;16.10;99.90;;;;;;5059123;28;20230;-58
2023/10/17 12:52:17;;;;;;;2.57;1.70;;;16.00;1.00;;;;;;5058324;28;20642;-58
2023/10/17 12:54:46;;;;;;;2.33;2.13;;;15.90;22.10;;;;;;5064808;28;20283;-58
2023/10/17 12:57:16;;;;;;;1.93;1.83;;;15.90;1.00;;;;;;5064497;28;20882;-59
2023/10/17 12:59:44;;;;;;;2.83;2.03;;;16.00;1.00;;;;;;5065557;28;20230;-58
2023/10/17 13:02:12;;;;;;;1.90;1.80;;;16.10;1.00;;;;;;5069016;28;20215;-58
2023/10/17 13:04:41;;;;;;;2.37;2.23;;;16.10;99.90;;;;;;5072106;28;20230;-58
2023/10/17 13:07:12;;;;;;;2.27;1.80;;;16.00;99.90;;;;;;5062857;28;20204;-58
2023/10/17 13:09:41;;;;;;;1.90;1.80;;;16.00;1.00;;;;;;5065237;28;20236;-58
2023/10/17 13:12:09;;;;;;;3.63;2.20;;;16.00;99.90;;;;;;5069681;28;20218;-58
2023/10/17 13:14:39;;;;;;;3.40;1.93;;;16.00;1.00;;;;;;5065779;28;20570;-58
2023/10/17 13:17:09;;;;;;;2.57;2.17;;;15.90;1.00;;;;;;5065147;28;20246;-58
2023/10/17 13:19:40;;;;;;;4.23;1.93;;;15.60;1.00;;;;;;5069448;28;20198;-58
2023/10/17 13:22:08;;;;;;;4.17;2.00;;;15.60;99.90;;;;;;5068494;28;20234;-59
2023/10/17 13:24:36;;;;;;;6.63;1.80;;;15.70;1.00;;;;;;5063637;28;20222;-58
2023/10/17 13:27:05;;;;;;;2.23;1.90;;;15.70;1.00;;;;;;5068229;28;20217;-58
2023/10/17 13:29:48;;;;;;;3.30;1.87;;;15.70;1.00;;;;;;5065032;28;20233;-59
2023/10/17 13:32:17;;;;;;;3.70;2.13;;;15.80;99.90;;;;;;5066998;28;20271;-58
2023/10/17 13:34:46;;;;;;;5.07;2.47;;;15.80;1.00;;;;;;5071484;28;20225;-58
2023/10/17 13:37:14;;;;;;;4.73;2.07;;;15.70;1.00;;;;;;5066606;28;20232;-59
2023/10/17 13:39:43;;;;;;;2.20;2.00;;;15.60;99.90;;;;;;5067065;28;20222;-58
2023/10/17 13:42:11;;;;;;;5.60;2.10;;;15.70;99.90;;;;;;5066171;28;20226;-58
2023/10/17 13:44:39;;;;;;;2.17;1.97;;;15.70;99.90;;;;;;5064415;28;20217;-59
2023/10/17 13:47:09;;;;;;;2.50;1.80;;;15.70;1.00;;;;;;5062382;28;20235;-58
2023/10/17 13:49:38;;;;;;;3.37;2.07;;;15.50;1.00;;;;;;5067106;28;20200;-59
2023/10/17 13:52:08;;;;;;;1.90;1.80;;;15.40;1.00;;;;;;5067867;28;20262;-58
2023/10/17 13:54:39;;;;;;;2.57;2.37;;;15.40;99.90;;;;;;5066647;28;20248;-59
2023/10/17 13:57:09;;;;;;;3.90;2.70;;;15.40;1.00;;;;;;5064205;28;20299;-59
2023/10/17 13:59:46;;;;;;;1.90;1.80;;;15.50;1.00;;;;;;5059234;28;20217;-59
2023/10/17 14:02:18;;;;;;;2.83;2.00;;;15.40;1.00;;;;;;5060123;28;20225;-58
2023/10/17 14:04:47;;;;;;;2.73;1.70;;;15.40;1.00;;;;;;5061096;28;20236;-58
2023/10/17 14:07:18;;;;;;;1.90;1.80;;;15.50;1.00;;;;;;5062826;28;20189;-59
2023/10/17 14:09:46;;;;;;;2.23;1.83;;;15.50;1.00;;;;;;5063306;28;20213;-58
2023/10/17 14:12:15;;;;;;;4.10;1.80;;;15.40;99.90;;;;;;5064677;28;20211;-58
2023/10/17 14:14:43;;;;;;;1.97;1.70;;;15.40;57.90;;;;;;5064385;28;20235;-58
2023/10/17 14:17:11;;;;;;;2.00;2.00;;;15.30;99.90;;;;;;5065428;28;20214;-58
2023/10/17 14:19:44;;;;;;;1.90;1.80;;;15.40;99.90;;;;;;5062437;28;20233;-58
2023/10/17 14:22:33;;;;;;;2.03;1.77;;;15.30;99.90;;;;;;5066631;28;20598;-59
2023/10/17 14:25:04;;;;;;;1.87;1.77;;;15.40;99.90;;;;;;5065443;28;20233;-58
2023/10/17 14:27:32;;;;;;;3.67;1.67;;;15.70;1.00;;;;;;5062408;28;20217;-58
2023/10/17 14:30:05;;;;;;;2.43;2.00;;;15.60;1.00;;;;;;5063261;28;20688;-59
2023/10/17 14:32:33;;;;;;;2.17;2.03;;;15.50;1.00;;;;;;5065815;28;20237;-59
2023/10/17 14:35:04;;;;;;;1.80;1.70;;;15.50;1.00;;;;;;5066616;28;20221;-58
2023/10/17 14:37:32;;;;;;;2.80;1.90;;;15.70;99.90;;;;;;5063488;28;20208;-59
2023/10/17 14:40:00;;;;;;;1.93;1.83;;;15.60;1.00;;;;;;5067839;28;20212;-58
2023/10/17 14:42:29;;;;;;;3.93;1.93;;;15.30;1.00;;;;;;5066773;28;20643;-58
2023/10/17 14:44:57;;;;;;;10.20;2.33;;;15.00;1.00;;;;;;5061356;28;20602;-58
2023/10/17 14:47:27;;;;;;;2.00;1.60;;;15.00;1.00;;;;;;5061826;28;20216;-57
2023/10/17 14:49:55;;;;;;;1.93;1.80;;;14.80;18.60;;;;;;5064041;28;20690;-57
2023/10/17 14:52:24;;;;;;;1.87;1.77;;;14.70;99.90;;;;;;5064753;28;20224;-58